Aircraft
UPR1037 PR-GAB DHC-6
KHXD
Hilton Head Airport
KVPZ
Porter County Municipal Airport
Pilot:: Klebson
Aircraft:: Aerosoft DHC-6 Series 300 Wheels Pax UP
Alternate: KVPZ
Network: ivao
FLIGHT DETAILS
Distance: 632nm Duration 01h 04m
Cruise Speed: Flight Level: 10000
Validation: Validated Type Charter
Flight Fuel
ZFW: 4500
Block Fuel/Initial FOB: 1063
Flight Fuel: 820
Cargo
Passengers: 9
Cargo: 191
ROUTE
ROUTE: BASLE TREAL DAJPI OCASE FLM BONNT VEECK5
REMARKS:
DATE
Date: 26-04-22
Departure Time: 1353
Cargo: 191
FLIGHT DETAILS
Crashed: No
Validator Comments: VALIDADO POR AURELIANO
Flight Rating: 80
LANDING ANALYSIS
Landing wind: 261º/13 kt
Landing heading: 102º
Landing VS:: -271 ft/min
Landing IAS:: 81 kt
Landing Force G: 1.1 G
Landing Bank: 1
Landing Pitch: -1
Landing Flaps: 25
Navigation Lights: ON
Landing Lights: ON
Beacon Lights: ON
Strobe Lights: ON
viserfly

ALTITUDE CHART

viserfly

MAIN EVENTS

DATE EVENT IAS ALTITUDE
2026-04-22 13:52:42 FLYacars version 1.3.4 0 24
2026-04-22 13:52:42 Aircraft boarding in progress 0 24
2026-04-22 13:52:46 Mid air refuel flag, BEFORE: 1063kg, NOW: 2014kg 0 24
2026-04-22 13:53:16 Aircraft taxiing to runway 4 24
2026-04-22 13:53:35 Detected Take-off roll, HDG 30, IAS 103kt, GS 105kt, G-force 1.1g, Pitch -2.4deg, Bank -0.7deg, Wind 270/01kt, Temp 14°C 103 25
2026-04-22 13:53:35 Airborne 103 25
2026-04-22 13:54:05 FLAPS 0% 112kt, ALT 1020ft 112 1020
2026-04-22 13:56:56 Aircraft on Top Of Climb at 9995ft, IAS 135kt, GS 157kt, HDG 350deg, TAT -4deg, WIND 270/2kt 135 9995
2026-04-22 14:55:20 Aircraft on Top Of Descent at 9490ft, IAS 132kt, GS 165kt, HDG 36deg, TAT 1deg, WIND 288/24kt 132 9490
2026-04-22 14:56:05 Simulator Paused 144 4884
2026-04-22 14:56:29 Simulator Un-Paused 144 4884
2026-04-22 14:58:11 FLAPS 25% 117kt, ALT 967ft 117 967
2026-04-22 14:58:25 Landed at destination with a landing rate of -271fpm, G-force 1.1g, Pitch -0.6deg, Bank 1.0deg, HDG 102deg, IAS 81kt, GS 96kt, Wind 261/13kt, Temp 18°C 81 774
2026-04-22 14:58:25 Landed in not planned airport 81 774
2026-04-22 14:58:40 Aircraft taxiing to apron 13 768
2026-04-22 14:58:57 Aircraft at gate/stand, ground services are moving into position, disembarkation has begun. Remaining FOB 243kg FLYacars v1.3.4 0 768
viserfly

ACARS DATA

DATE IAS GS ALTITUDE FUEL CONSUMED OAT FLIGHT STATUS
2026-04-22 13:53:12 0 0 24 -949 14 BOARDING
2026-04-22 13:53:42 107 104 231 -944 14 TAKEOFF
2026-04-22 13:54:12 113 114 1242 -938 12 INITIAL CLIMB
2026-04-22 13:54:42 149 152 1680 -933 11 INITIAL CLIMB
2026-04-22 13:55:12 143 151 3901 -914 7 CLIMB
2026-04-22 13:55:42 139 150 5790 -897 3 CLIMB
2026-04-22 13:56:12 138 155 7518 -881 0 CLIMB
2026-04-22 13:56:42 136 156 9236 -866 -3 CLIMB
2026-04-22 13:57:12 153 178 10006 -852 -4 ENROUTE
2026-04-22 13:57:42 155 180 10006 -838 -4 ENROUTE
2026-04-22 13:58:12 157 183 10290 -823 -1 ENROUTE
2026-04-22 13:58:42 156 182 10293 -809 -1 ENROUTE
2026-04-22 13:59:12 158 184 10289 -794 -1 ENROUTE
2026-04-22 13:59:42 160 186 10286 -779 -1 ENROUTE
2026-04-22 14:00:12 157 182 10273 -765 -1 ENROUTE
2026-04-22 14:00:42 158 183 10266 -750 -1 ENROUTE
2026-04-22 14:01:12 156 180 10275 -735 -1 ENROUTE
2026-04-22 14:01:42 158 182 10287 -721 -1 ENROUTE
2026-04-22 14:02:12 155 179 10273 -706 -1 ENROUTE
2026-04-22 14:02:42 156 179 10286 -691 -1 ENROUTE
2026-04-22 14:03:12 157 180 10285 -677 -1 ENROUTE
2026-04-22 14:03:42 156 180 10272 -662 -1 ENROUTE
2026-04-22 14:04:12 157 181 10280 -647 -1 ENROUTE
2026-04-22 14:04:42 155 178 10266 -633 -1 ENROUTE
2026-04-22 14:05:12 156 179 10267 -618 -1 ENROUTE
2026-04-22 14:05:42 156 179 10268 -603 -1 ENROUTE
2026-04-22 14:06:12 156 179 10262 -589 -1 ENROUTE
2026-04-22 14:06:42 156 179 10264 -574 -1 ENROUTE
2026-04-22 14:07:12 155 178 10266 -559 -1 ENROUTE
2026-04-22 14:07:42 155 178 10265 -545 -1 ENROUTE
2026-04-22 14:08:12 155 178 10266 -530 0 ENROUTE
2026-04-22 14:08:42 156 178 10261 -516 0 ENROUTE
2026-04-22 14:09:12 155 178 10251 -501 0 ENROUTE
2026-04-22 14:09:42 156 178 10246 -486 0 ENROUTE
2026-04-22 14:10:12 157 179 10249 -472 0 ENROUTE
2026-04-22 14:10:42 158 180 10248 -457 0 ENROUTE
2026-04-22 14:11:12 157 179 10245 -442 0 ENROUTE
2026-04-22 14:11:42 155 177 10238 -428 0 ENROUTE
2026-04-22 14:12:12 156 177 10227 -413 0 ENROUTE
2026-04-22 14:12:42 155 175 10228 -398 0 ENROUTE
2026-04-22 14:13:12 156 174 10221 -384 0 ENROUTE
2026-04-22 14:13:42 158 175 10210 -369 0 ENROUTE
2026-04-22 14:14:12 154 168 10218 -355 0 ENROUTE
2026-04-22 14:14:42 156 168 10202 -340 0 ENROUTE
2026-04-22 14:15:12 156 167 10210 -325 0 ENROUTE
2026-04-22 14:15:42 156 167 10200 -311 -1 ENROUTE
2026-04-22 14:16:12 155 166 10199 -296 -1 ENROUTE
2026-04-22 14:16:42 155 167 10214 -282 -1 ENROUTE
2026-04-22 14:17:12 155 168 10200 -267 -1 ENROUTE
2026-04-22 14:17:42 156 169 10207 -252 -1 ENROUTE
2026-04-22 14:18:12 157 171 10202 -238 -1 ENROUTE
2026-04-22 14:18:42 156 169 10206 -223 -1 ENROUTE
2026-04-22 14:19:12 159 172 10182 -208 -1 ENROUTE
2026-04-22 14:19:42 155 167 10185 -194 0 ENROUTE
2026-04-22 14:20:12 158 170 10169 -179 -1 ENROUTE
2026-04-22 14:20:42 156 167 10164 -164 -1 ENROUTE
2026-04-22 14:21:12 155 164 10177 -150 -1 ENROUTE
2026-04-22 14:21:42 156 160 10173 -135 -1 ENROUTE
2026-04-22 14:22:12 153 152 10171 -120 -1 ENROUTE
2026-04-22 14:22:42 154 150 10167 -106 -1 ENROUTE
2026-04-22 14:23:12 156 156 10182 -91 -1 ENROUTE
2026-04-22 14:23:42 156 155 10176 -76 -1 ENROUTE
2026-04-22 14:24:12 155 175 10181 -62 -1 ENROUTE
2026-04-22 14:24:42 155 153 10171 -47 -1 ENROUTE
2026-04-22 14:25:12 155 160 10172 -32 -1 ENROUTE
2026-04-22 14:25:42 156 162 10179 -18 -1 ENROUTE
2026-04-22 14:26:12 156 162 10170 -3 -1 ENROUTE
2026-04-22 14:26:42 155 163 10162 12 -1 ENROUTE
2026-04-22 14:27:12 154 160 10166 26 -1 ENROUTE
2026-04-22 14:27:42 155 162 10163 41 -1 ENROUTE
2026-04-22 14:28:12 155 162 10150 55 -1 ENROUTE
2026-04-22 14:28:42 155 161 10153 70 -1 ENROUTE
2026-04-22 14:29:12 154 156 10151 85 0 ENROUTE
2026-04-22 14:29:42 155 159 10154 99 0 ENROUTE
2026-04-22 14:30:12 155 159 10152 114 0 ENROUTE
2026-04-22 14:30:42 156 160 10150 129 0 ENROUTE
2026-04-22 14:31:12 155 159 10150 143 0 ENROUTE
2026-04-22 14:31:42 156 160 10152 158 0 ENROUTE
2026-04-22 14:32:12 156 159 10143 173 0 ENROUTE
2026-04-22 14:32:42 157 160 10147 187 0 ENROUTE
2026-04-22 14:33:12 155 159 10131 202 0 ENROUTE
2026-04-22 14:33:42 154 159 10129 216 0 ENROUTE
2026-04-22 14:34:12 155 159 10128 231 0 ENROUTE
2026-04-22 14:34:42 155 159 10129 246 0 ENROUTE
2026-04-22 14:35:12 154 159 10133 260 0 ENROUTE
2026-04-22 14:35:42 156 163 10121 275 0 ENROUTE
2026-04-22 14:36:12 156 163 10118 289 0 ENROUTE
2026-04-22 14:36:42 159 167 10137 304 0 ENROUTE
2026-04-22 14:37:12 156 164 10119 319 0 ENROUTE
2026-04-22 14:37:42 155 163 10124 333 0 ENROUTE
2026-04-22 14:38:12 155 164 10126 348 0 ENROUTE
2026-04-22 14:38:42 156 165 10123 362 0 ENROUTE
2026-04-22 14:39:12 155 164 10122 377 0 ENROUTE
2026-04-22 14:39:42 156 167 10125 391 0 ENROUTE
2026-04-22 14:40:12 155 166 10124 406 0 ENROUTE
2026-04-22 14:40:42 155 163 10120 421 0 ENROUTE
2026-04-22 14:41:12 156 163 10121 435 0 ENROUTE
2026-04-22 14:41:42 155 163 10122 450 0 ENROUTE
2026-04-22 14:42:12 156 164 10122 464 0 ENROUTE
2026-04-22 14:42:42 156 165 10128 479 0 ENROUTE
2026-04-22 14:43:12 155 164 10122 494 0 ENROUTE
2026-04-22 14:43:42 155 164 10120 508 0 ENROUTE
2026-04-22 14:44:12 156 165 10116 523 0 ENROUTE
2026-04-22 14:44:42 156 164 10117 537 0 ENROUTE
2026-04-22 14:45:12 155 163 10113 552 0 ENROUTE
2026-04-22 14:45:42 156 164 10117 567 0 ENROUTE
2026-04-22 14:46:12 157 166 10107 581 0 ENROUTE
2026-04-22 14:46:42 155 163 10100 596 0 ENROUTE
2026-04-22 14:47:12 156 164 10110 610 0 ENROUTE
2026-04-22 14:47:42 156 163 10106 625 0 ENROUTE
2026-04-22 14:48:12 155 162 10103 640 0 ENROUTE
2026-04-22 14:48:42 155 161 10101 654 0 ENROUTE
2026-04-22 14:49:12 157 162 10110 669 0 ENROUTE
2026-04-22 14:49:42 157 162 10106 683 0 ENROUTE
2026-04-22 14:50:12 156 162 10098 698 0 ENROUTE
2026-04-22 14:50:42 152 154 10096 713 0 ENROUTE
2026-04-22 14:51:12 155 159 10091 727 0 ENROUTE
2026-04-22 14:51:42 119 116 10082 739 0 ENROUTE
2026-04-22 14:52:12 113 108 10095 749 0 ENROUTE
2026-04-22 14:52:42 110 105 10088 759 0 ENROUTE
2026-04-22 14:53:12 112 107 10098 769 0 ENROUTE
2026-04-22 14:53:42 111 106 10107 778 0 ENROUTE
2026-04-22 14:54:12 111 106 10107 788 0 ENROUTE
2026-04-22 14:54:42 109 106 10093 798 0 ENROUTE
2026-04-22 14:55:12 124 148 9754 806 1 DESCENT
2026-04-22 14:55:42 158 197 7058 811 8 DESCENT
2026-04-22 14:56:12 144 176 4884 813 14 DESCENT
2026-04-22 14:56:42 130 156 3991 814 14 DESCENT
2026-04-22 14:57:12 132 153 2310 816 14 DESCENT
2026-04-22 14:57:42 118 134 1645 817 15 DESCENT
2026-04-22 14:58:12 115 129 941 819 18 ON FINAL
2026-04-22 14:58:42 0 8 768 820 18 TAXI TO APRON
  • Join our VA!

    It has been 11 years of great learning, friendships, and stories.

  • Sign up now!